Flora, IL

07:05 PM CDT am 28. August 2016 (GMT -0500)
Flora Municipal | | Change Station

Höhe 472 ft 38.67 °N, 88.45 °W | Updated 10 minutes ago

Clear
Heiter
85 °F
gefühlte 94 °F
N
0
Wind Wechselnd Wind aus Nord

Heute
Max. -- | schwach -- °F
--% Regenrisiko
Gestern
Max. -- | schwach -- °F
Precip. -- inch
Druck 30.10 inch
Sichtweite 10.0 Meilen
Wolken Heiter
Hitzeindex 94 °F
Taupunkt 75 °F
Feuchtigkeit 73%
Regen 0.00 inch
Schneehöhe Nicht verfügbar..
6:19 AM 7:29 PM
Letztes Viertel, 12% visible
METAR KFOA 282355Z AUTO 00000KT 10SM CLR 30/24 A3010 RMK AO2 LTG DSNT NE AND E T02950241 10338 20290
Druck 30.10 inch
Sichtweite 10.0 Meilen
Wolken Heiter
Hitzeindex 94 °F
Taupunkt 75 °F
Feuchtigkeit 73%
Regen 0.00 inch
Schneehöhe Nicht verfügbar..
6:19 AM 7:29 PM
Letztes Viertel, 12% visible
METAR KFOA 282355Z AUTO 00000KT 10SM CLR 30/24 A3010 RMK AO2 LTG DSNT NE AND E T02950241 10338 20290

10-Day Weather Forecast

Almanac

Astronomie

Aug. 28, 2016 Aufgang Untergang
Genaue Zeit
Bürgerliche Dämmerung
Nautische Dämmerung
Astronomische Dämmerung
Mond
Länge des sichtbaren Lichts
Tageslänge
Tomorrow will be .
, % of the Moon is Illuminated

Heutige Rekorde

State Highs State Lows

Community

WunderPhotos

Upload Photos

1,935,726 Fotos hochgeladen!

WunderBlog® & News

Nearby

Luftqualität

  Luftqualität LQ Index Schadstoff
Not available.

Schneehöhe

Station Depth Höhe

Erdbebenaktivität

Stadt Distance Mag. Time & Date
Minimum magnitude displayed is 2.5.

küstennahe Wassertemperaturen

Ort Temperatur

Stations

Wetterstationen in der Umgebung

Stationsstandort Temp. Windchill Taupunkt Feuchtigkeit Wind Precip. Höhe Aktualisiert Art
                   

Watches & Warnings

There are currently no watches in effect.